ADDS METAR Data INFO
IDs: Format: Raw Decoded Include TAF

Data at: 1749 UTC 21 Oct 2017

K1A6 211735Z AUTO 19005KT 10SM CLR 23/09 A3029 RMK AO2 T02320092
K1A6 211715Z AUTO 13003KT 10SM CLR 22/10 A3031 RMK AO2 T02200103
K1A6 211655Z AUTO 00000KT 10SM CLR 21/12 A3032 RMK AO2 T02080116
K1A6 211635Z AUTO 00000KT 10SM CLR 20/12 A3032 RMK AO2 T01980120
K1A6 211615Z AUTO 00000KT 10SM CLR 18/12 A3033 RMK AO2 T01770118
K1A6 211555Z AUTO 00000KT 10SM CLR 15/12 A3033 RMK AO2 T01480117
K1A6 211535Z AUTO 00000KT 10SM CLR 13/11 A3034 RMK AO2 T01320108
K1A6 211515Z AUTO 00000KT 10SM CLR 12/11 A3034 RMK AO2 T01230108
K1A6 211455Z AUTO 00000KT 10SM CLR 11/11 A3034 RMK AO2 T01130105
K1A6 211435Z AUTO 00000KT 10SM CLR 10/10 A3034 RMK AO2 T01010101
K1A6 211415Z AUTO 00000KT 1 3/4SM BR BKN003 09/09 A3034 RMK AO2 VIS 3/4V5 T00880088
K1A6 211355Z AUTO 00000KT 1/2SM FG OVC003 08/08 A3035 RMK AO2 T00800080
K1A6 211335Z AUTO 00000KT 1/2SM FG OVC003 08/08 A3035 RMK AO2 T00770077
K1A6 211315Z AUTO 00000KT 1/4SM FG OVC003 08/08 A3034 RMK AO2 T00750075
K1A6 211255Z AUTO 00000KT M1/4SM FG OVC003 07/07 A3033 RMK AO2 T00730073
K1A6 211235Z AUTO 00000KT M1/4SM FG OVC003 07/07 A3032 RMK AO2 T00710071
K1A6 211215Z AUTO 00000KT 1/4SM FG OVC003 07/07 A3032 RMK AO2 T00710071
K1A6 211155Z AUTO 00000KT 1/4SM FG OVC003 07/07 A3031 RMK AO2 T00680068 10076 20068
K1A6 211135Z AUTO 00000KT 1/4SM FG OVC003 07/07 A3031 RMK AO2 T00700070
K1A6 211115Z AUTO 00000KT M1/4SM FG OVC003 07/07 A3030 RMK AO2 T00700070
K1A6 211055Z AUTO 00000KT 1/4SM FG OVC003 07/07 A3029 RMK AO2 T00680068
K1A6 211035Z AUTO 00000KT 1/4SM FG OVC003 07/07 A3029 RMK AO2 T00700070
K1A6 211015Z AUTO 00000KT 1/4SM FG OVC003 07/07 A3028 RMK AO2 T00710071
K1A6 210955Z AUTO 00000KT 1/4SM FG OVC003 07/07 A3028 RMK AO2 T00730073
K1A6 210935Z AUTO 00000KT 1/4SM FG OVC003 07/07 A3027 RMK AO2 T00730073
K1A6 210915Z AUTO 00000KT 1/4SM FG OVC003 07/07 A3027 RMK AO2 T00730073
K1A6 210855Z AUTO 00000KT 1/4SM FG OVC003 07/07 A3027 RMK AO2 T00730073
K1A6 210835Z AUTO 00000KT 1/4SM FG OVC003 07/07 A3026 RMK AO2 T00730073
K1A6 210815Z AUTO 00000KT 1/4SM FG OVC003 07/07 A3026 RMK AO2 T00720072
K1A6 210755Z AUTO 00000KT 3/4SM BR OVC003 08/08 A3026 RMK AO2 T00750075
K1A6 210735Z AUTO 00000KT 7SM OVC003 07/07 A3026 RMK AO2 T00710071
K1A6 210715Z AUTO 00000KT 10SM BKN003 07/07 A3026 RMK AO2 T00700070
K1A6 210655Z AUTO 00000KT 10SM SCT003 07/07 A3026 RMK AO2 T00710071
K1A6 210635Z AUTO 00000KT 10SM SCT003 08/08 A3026 RMK AO2 T00750075
K1A6 210615Z AUTO 00000KT 10SM CLR 07/07 A3026 RMK AO2 T00740074
K1A6 210555Z AUTO 00000KT 10SM CLR 08/08 A3026 RMK AO2 T00770077 10144 20077 402480060
K1A6 210535Z AUTO 00000KT 10SM CLR 08/08 A3025 RMK AO2 T00790079
K1A6 210515Z AUTO 00000KT 7SM CLR 08/08 A3025 RMK AO2 T00820082
K1A6 210455Z AUTO 00000KT 10SM CLR 08/08 A3026 RMK AO2 T00840084
K1A6 210435Z AUTO 00000KT 10SM CLR 09/09 A3026 RMK AO2 T00850085
K1A6 210415Z AUTO 00000KT 7SM CLR 09/09 A3026 RMK AO2 T00890089
K1A6 210355Z AUTO 00000KT 10SM CLR 09/09 A3026 RMK AO2 T00900090
K1A6 210335Z AUTO 00000KT 10SM CLR 09/09 A3026 RMK AO2 T00910091
K1A6 210315Z AUTO 00000KT 10SM CLR 10/10 A3026 RMK AO2 T00950095
K1A6 210255Z AUTO 00000KT 10SM CLR 10/09 A3026 RMK AO2 T00980094
K1A6 210235Z AUTO 00000KT 10SM CLR 10/10 A3026 RMK AO2 T01000096
K1A6 210210Z AUTO 00000KT 10SM CLR 10/10 A3026 RMK AO2 T01030097
K1A6 210155Z AUTO 00000KT 10SM CLR 11/10 A3026 RMK AO2 T01100102
K1A6 210135Z AUTO 00000KT 10SM CLR 11/10 A3025 RMK AO2 T01100101
K1A6 210115Z AUTO 00000KT 10SM CLR 12/11 A3025 RMK AO2 T01190105
K1A6 210055Z AUTO 00000KT 10SM CLR 12/11 A3024 RMK AO2 T01240106
K1A6 210035Z AUTO 00000KT 10SM CLR 14/11 A3024 RMK AO2 T01350105
K1A6 210015Z AUTO 00000KT 10SM CLR 14/11 A3024 RMK AO2 T01400106
K1A6 202355Z AUTO 00000KT 10SM CLR 15/11 A3024 RMK AO2 T01460106 10248 20146
K1A6 202335Z AUTO 00000KT 10SM CLR 16/11 A3023 RMK AO2 T01600107
K1A6 202315Z AUTO 24004KT 10SM CLR 17/11 A3022 RMK AO2 T01660110
K1A6 202255Z AUTO 00000KT 10SM CLR 17/11 A3022 RMK AO2 T01720105
K1A6 202235Z AUTO 00000KT 10SM CLR 18/10 A3021 RMK AO2 T01820102
K1A6 202215Z AUTO 00000KT 10SM CLR 20/11 A3021 RMK AO2 T02020111
K1A6 202155Z AUTO 00000KT 10SM CLR 22/11 A3021 RMK AO2 T02180108
K1A6 202135Z AUTO 24003KT 10SM CLR 23/10 A3021 RMK AO2 T02330100
K1A6 202115Z AUTO 00000KT 10SM CLR 24/09 A3022 RMK AO2 T02430088
K1A6 202055Z AUTO 00000KT 10SM CLR 25/08 A3022 RMK AO2 T02450077
K1A6 202035Z AUTO 00000KT 10SM CLR 25/06 A3022 RMK AO2 T02460064
K1A6 202015Z AUTO 06003KT 10SM CLR 25/06 A3023 RMK AO2 T02470061
K1A6 201955Z AUTO 00000KT 10SM CLR 25/06 A3023 RMK AO2 T02470063
K1A6 201935Z AUTO 00000KT 10SM CLR 24/06 A3024 RMK AO2 T02440062
K1A6 201915Z AUTO 05003KT 10SM CLR 24/09 A3024 RMK AO2 T02410091
K1A6 201855Z AUTO 00000KT 10SM CLR 24/10 A3025 RMK AO2 T02360104
K1A6 201835Z AUTO 00000KT 10SM CLR 23/11 A3026 RMK AO2 T02260107
K1A6 201815Z AUTO 00000KT 10SM CLR 22/11 A3027 RMK AO2 T02230110
K1A6 201755Z AUTO 00000KT 10SM CLR 22/10 A3028 RMK AO2 T02180103 10219 20060
K1A6 201735Z AUTO 00000KT 10SM CLR 21/11 A3029 RMK AO2 T02100109
K1A6 201715Z AUTO 00000KT 10SM CLR 20/10 A3031 RMK AO2 T01950104
K1A6 201655Z AUTO 00000KT 10SM CLR 19/11 A3032 RMK AO2 T01850107
K1A6 201635Z AUTO 00000KT 10SM CLR 17/10 A3033 RMK AO2 T01700097
K1A6 201615Z AUTO 00000KT 10SM CLR 15/10 A3034 RMK AO2 T01510099
K1A6 201555Z AUTO 00000KT 10SM CLR 12/10 A3035 RMK AO2 T01220101
K1A6 201535Z AUTO 00000KT 10SM SCT002 11/10 A3036 RMK AO2 T01060099
K1A6 201515Z AUTO 00000KT 10SM BKN002 09/09 A3037 RMK AO2 T00940094
K1A6 201455Z AUTO 00000KT 2SM BR OVC002 08/08 A3038 RMK AO2 T00830083
K1A6 201435Z AUTO 00000KT 3/4SM BR OVC002 08/08 A3038 RMK AO2 T00770077
K1A6 201415Z AUTO 00000KT 1/4SM FG OVC002 07/07 A3038 RMK AO2 T00710071
K1A6 201355Z AUTO 00000KT 1/4SM FG OVC002 07/07 A3039 RMK AO2 T00680068
K1A6 201335Z AUTO 00000KT 1/4SM FG OVC002 07/07 A3038 RMK AO2 T00650065
K1A6 201315Z AUTO 00000KT 1/4SM FG OVC002 06/06 A3038 RMK AO2 T00640064
K1A6 201255Z AUTO 00000KT 1/4SM FG OVC002 06/06 A3038 RMK AO2 T00620062
K1A6 201235Z AUTO 00000KT 1/4SM FG OVC002 06/06 A3037 RMK AO2 T00610061
K1A6 201215Z AUTO 00000KT 1/4SM FG OVC002 06/06 A3037 RMK AO2 T00600060
K1A6 201155Z AUTO 00000KT 1/4SM FG OVC002 06/06 A3036 RMK AO2 T00610061 10071 20060
K1A6 201135Z AUTO 00000KT 1/4SM FG OVC002 06/06 A3036 RMK AO2 T00610061
K1A6 201115Z AUTO 00000KT 1/4SM FG OVC002 06/06 A3036 RMK AO2 T00600060
K1A6 201055Z AUTO 00000KT 1/4SM FG OVC002 06/06 A3036 RMK AO2 T00610061
K1A6 201035Z AUTO 00000KT 1/4SM FG OVC002 06/06 A3034 RMK AO2 T00610061
K1A6 201015Z AUTO 00000KT 1/4SM FG OVC002 06/06 A3033 RMK AO2 T00610061
K1A6 200955Z AUTO 00000KT 1/4SM FG OVC002 06/06 A3033 RMK AO2 T00620062
K1A6 200935Z AUTO 00000KT 1/2SM FG OVC002 06/06 A3032 RMK AO2 T00630063
K1A6 200915Z AUTO 00000KT 1/4SM FG OVC002 06/06 A3032 RMK AO2 T00630063
K1A6 200855Z AUTO 00000KT 1/4SM FG OVC002 06/06 A3032 RMK AO2 T00630063
K1A6 200835Z AUTO 00000KT 1/4SM FG OVC002 06/06 A3032 RMK AO2 T00620062
K1A6 200815Z AUTO 00000KT 3/4SM BR OVC002 06/06 A3032 RMK AO2 T00620062
K1A6 200755Z AUTO 00000KT 1/4SM FG OVC002 06/06 A3032 RMK AO2 T00620062
K1A6 200735Z AUTO 00000KT 1/4SM FG OVC002 06/06 A3031 RMK AO2 T00600060
K1A6 200715Z AUTO 00000KT 7SM SCT002 06/06 A3031 RMK AO2 T00600060
K1A6 200655Z AUTO 00000KT 7SM CLR 07/07 A3032 RMK AO2 T00650065
K1A6 200635Z AUTO 00000KT 7SM SCT004 07/07 A3032 RMK AO2 T00650065
K1A6 200615Z AUTO 00000KT 7SM CLR 07/07 A3031 RMK AO2 T00650065
K1A6 200555Z AUTO 00000KT 7SM CLR 07/07 A3032 RMK AO2 T00710071 10142 20070 402240035